createdAt,value
2022-08-12T00:03:17.735Z,21.86
2022-08-12T00:14:01.818Z,21.70
2022-08-12T00:24:41.929Z,21.67
2022-08-12T00:35:29.202Z,21.48
2022-08-12T00:46:17.029Z,21.48
2022-08-12T00:56:39.396Z,21.33
2022-08-12T01:07:22.144Z,21.33
2022-08-12T01:17:45.208Z,21.08
2022-08-12T01:28:13.725Z,20.92
2022-08-12T01:38:36.205Z,20.94
2022-08-12T01:49:22.487Z,20.91
2022-08-12T02:00:05.021Z,20.94
2022-08-12T02:11:00.398Z,20.70
2022-08-12T02:21:38.343Z,20.65
2022-08-12T02:32:00.111Z,20.53
2022-08-12T02:42:25.060Z,20.23
2022-08-12T02:52:48.158Z,20.15
2022-08-12T03:03:11.925Z,20.08
2022-08-12T03:13:36.440Z,20.08
2022-08-12T03:24:00.399Z,20.00
2022-08-12T03:34:29.925Z,19.72
2022-08-12T03:45:31.353Z,19.61
2022-08-12T03:56:11.982Z,19.56
2022-08-12T04:06:35.939Z,19.53
2022-08-12T04:16:57.920Z,19.47
2022-08-12T04:27:19.766Z,19.42
2022-08-12T04:37:58.451Z,19.44
2022-08-12T04:48:22.397Z,19.32
2022-08-12T04:58:47.369Z,19.33
2022-08-12T05:09:13.635Z,19.48
2022-08-12T05:19:35.380Z,19.63
2022-08-12T05:30:07.787Z,19.83
2022-08-12T05:40:30.610Z,19.76
2022-08-12T05:50:53.162Z,19.96
2022-08-12T06:02:09.458Z,20.05
2022-08-12T06:12:05.808Z,20.31
2022-08-12T06:22:28.190Z,20.47
2022-08-12T06:33:11.443Z,20.53
2022-08-12T06:44:06.198Z,20.81
2022-08-12T06:54:14.203Z,21.56
2022-08-12T07:04:52.723Z,22.16
2022-08-12T07:15:14.267Z,22.22
2022-08-12T07:25:40.952Z,22.35
2022-08-12T07:36:03.614Z,22.84
2022-08-12T07:46:36.897Z,22.76
2022-08-12T07:56:58.804Z,22.84
2022-08-12T08:07:20.857Z,23.02
2022-08-12T08:18:02.832Z,23.13
2022-08-12T08:28:24.426Z,23.59
2022-08-12T08:38:53.142Z,23.96
2022-08-12T08:49:20.551Z,24.33
2022-08-12T08:59:42.180Z,24.55
2022-08-12T09:10:09.100Z,24.89
2022-08-12T09:20:34.946Z,24.86
2022-08-12T09:30:59.823Z,25.42
2022-08-12T09:42:34.424Z,25.83
2022-08-12T09:52:04.454Z,26.24
2022-08-12T10:02:41.839Z,26.42
2022-08-12T10:13:39.897Z,27.11
2022-08-12T10:24:05.051Z,27.28
2022-08-12T10:34:27.504Z,27.92
2022-08-12T10:44:49.778Z,28.34
2022-08-12T10:55:13.382Z,28.47
2022-08-12T11:07:10.200Z,28.79
2022-08-12T11:16:22.271Z,29.04
2022-08-12T11:26:44.999Z,29.04
2022-08-12T11:37:07.362Z,29.79
2022-08-12T11:47:49.267Z,29.60
2022-08-12T11:59:28.648Z,30.20
2022-08-12T12:08:53.854Z,30.00
2022-08-12T12:19:17.711Z,30.37
2022-08-12T12:30:17.613Z,30.23
2022-08-12T12:40:29.840Z,29.66
2022-08-12T12:51:13.491Z,29.25
2022-08-12T13:01:42.190Z,29.61
2022-08-12T13:12:10.400Z,29.46
2022-08-12T13:22:32.878Z,29.42
2022-08-12T13:32:58.659Z,29.40
2022-08-12T13:43:41.107Z,29.14
2022-08-12T13:54:09.529Z,29.38
2022-08-12T14:04:33.431Z,29.42
2022-08-12T14:14:55.377Z,29.34
2022-08-12T14:25:17.772Z,29.47
2022-08-12T14:35:41.291Z,29.54
2022-08-12T14:46:15.570Z,29.35
2022-08-12T15:07:33.868Z,29.63
2022-08-12T15:18:02.025Z,29.44
2022-08-12T15:28:26.326Z,29.44
2022-08-12T15:38:48.963Z,29.65
2022-08-12T15:49:17.135Z,29.63
2022-08-12T16:00:00.304Z,30.12
2022-08-12T16:10:22.469Z,29.94
2022-08-12T16:20:52.506Z,30.21
2022-08-12T16:31:22.975Z,30.41
2022-08-12T16:41:45.582Z,30.55
2022-08-12T16:52:12.499Z,30.58
2022-08-12T17:02:36.863Z,30.39
2022-08-12T17:13:00.017Z,30.00
2022-08-12T17:23:28.550Z,29.95
2022-08-12T17:34:29.835Z,30.02
2022-08-12T17:44:52.639Z,29.94
2022-08-12T17:55:44.792Z,29.95
2022-08-12T18:06:01.562Z,29.48
2022-08-12T18:16:29.041Z,29.38
2022-08-12T18:26:50.790Z,29.16
2022-08-12T18:37:40.995Z,28.82
2022-08-12T18:47:58.456Z,28.56
2022-08-12T18:58:20.663Z,28.28
2022-08-12T19:08:47.175Z,27.89
2022-08-12T19:19:10.597Z,27.68
2022-08-12T19:29:44.126Z,27.41
2022-08-12T19:40:19.766Z,27.08
2022-08-12T19:50:53.380Z,26.75
2022-08-12T20:01:17.227Z,26.47
2022-08-12T20:12:09.644Z,26.23
2022-08-12T20:22:24.918Z,26.05
2022-08-12T20:32:56.408Z,25.71
2022-08-12T20:43:19.135Z,25.74
2022-08-12T20:53:54.090Z,25.57
2022-08-12T21:04:39.887Z,25.30
2022-08-12T21:15:17.197Z,25.04
2022-08-12T21:25:47.193Z,24.88
2022-08-12T21:36:14.442Z,24.60
2022-08-12T21:46:53.557Z,24.42
2022-08-12T21:57:15.357Z,24.23
2022-08-12T22:07:46.096Z,24.05
2022-08-12T22:18:16.058Z,23.92
2022-08-12T22:28:58.994Z,23.69
2022-08-12T22:39:20.636Z,23.71
2022-08-12T22:49:53.157Z,23.54
2022-08-12T23:00:24.120Z,23.49
2022-08-12T23:10:50.300Z,23.51
2022-08-12T23:21:14.557Z,23.29
2022-08-12T23:32:03.430Z,23.23
2022-08-12T23:42:19.938Z,22.89
2022-08-12T23:52:46.651Z,22.74
